createdAt,value
2023-02-14T00:00:52.362Z,24.60
2023-02-14T00:01:52.351Z,24.10
2023-02-14T00:02:52.430Z,25.00
2023-02-14T00:03:52.358Z,24.10
2023-02-14T00:04:52.393Z,25.40
2023-02-14T00:05:52.306Z,25.60
2023-02-14T00:06:52.287Z,26.30
2023-02-14T00:07:52.271Z,25.30
2023-02-14T00:08:52.298Z,26.00
2023-02-14T00:09:52.253Z,26.70
2023-02-14T00:10:52.222Z,25.40
2023-02-14T00:11:52.225Z,25.70
2023-02-14T00:12:52.241Z,25.40
2023-02-14T00:13:52.229Z,26.30
2023-02-14T00:14:52.186Z,28.10
2023-02-14T00:15:52.201Z,26.50
2023-02-14T00:16:52.175Z,27.60
2023-02-14T00:17:52.154Z,25.60
2023-02-14T00:18:52.160Z,28.80
2023-02-14T00:19:52.157Z,27.30
2023-02-14T00:20:52.103Z,29.00
2023-02-14T00:21:52.100Z,28.60
2023-02-14T00:22:52.093Z,29.00
2023-02-14T00:23:52.095Z,29.30
2023-02-14T00:24:52.078Z,28.30
2023-02-14T00:25:52.040Z,28.50
2023-02-14T00:26:52.053Z,29.70
2023-02-14T00:27:52.036Z,29.60
2023-02-14T00:28:52.023Z,30.00
2023-02-14T00:29:52.036Z,29.70
2023-02-14T00:30:52.137Z,30.20
2023-02-14T00:31:52.034Z,30.10
2023-02-14T00:32:51.955Z,28.70
2023-02-14T00:33:51.961Z,29.10
2023-02-14T00:34:51.953Z,28.40
2023-02-14T00:35:51.925Z,29.50
2023-02-14T00:36:51.942Z,29.30
2023-02-14T00:37:51.899Z,27.20
2023-02-14T00:38:51.902Z,28.40
2023-02-14T00:39:51.881Z,30.00
2023-02-14T00:40:51.934Z,34.40
2023-02-14T00:41:51.859Z,32.70
2023-02-14T00:42:51.825Z,32.50
2023-02-14T00:43:51.821Z,31.00
2023-02-14T00:44:51.834Z,28.80
2023-02-14T00:45:51.835Z,27.90
2023-02-14T00:46:51.783Z,28.00
2023-02-14T00:47:51.794Z,29.10
2023-02-14T00:48:51.763Z,30.90
2023-02-14T00:49:51.782Z,33.60
2023-02-14T00:50:51.826Z,31.40
2023-02-14T00:51:51.714Z,32.10
2023-02-14T00:52:51.718Z,30.50
2023-02-14T00:53:51.684Z,32.40
2023-02-14T00:54:51.699Z,33.80
2023-02-14T00:55:51.674Z,32.20
2023-02-14T00:56:51.644Z,34.10
2023-02-14T00:57:51.658Z,32.80
2023-02-14T00:58:51.643Z,33.00
2023-02-14T00:59:51.631Z,35.50
2023-02-14T01:00:51.641Z,31.30
2023-02-14T01:01:51.592Z,33.00
2023-02-14T01:02:51.645Z,32.50
2023-02-14T01:03:51.582Z,35.20
2023-02-14T01:04:51.583Z,34.90
2023-02-14T01:05:51.532Z,34.30
2023-02-14T01:06:51.553Z,34.60
2023-02-14T01:07:51.530Z,34.00
2023-02-14T01:08:51.515Z,32.80
2023-02-14T01:09:51.503Z,31.00
2023-02-14T01:10:51.486Z,31.90
2023-02-14T01:11:51.494Z,32.20
2023-02-14T01:12:51.463Z,32.70
2023-02-14T01:13:51.450Z,33.20
2023-02-14T01:14:51.443Z,31.50
2023-02-14T01:15:51.423Z,31.10
2023-02-14T01:16:51.444Z,31.70
2023-02-14T01:17:51.396Z,33.60
2023-02-14T01:18:51.397Z,31.50
2023-02-14T01:19:51.373Z,30.10
2023-02-14T01:20:51.378Z,31.50
2023-02-14T01:21:51.332Z,31.50
2023-02-14T01:22:51.353Z,32.30
2023-02-14T01:23:51.304Z,34.40
2023-02-14T01:24:51.324Z,34.00
2023-02-14T01:25:51.284Z,32.00
2023-02-14T01:26:51.283Z,33.30
2023-02-14T01:27:51.255Z,32.80
2023-02-14T01:28:51.259Z,31.50
2023-02-14T01:29:51.248Z,31.20
2023-02-14T01:30:51.248Z,32.50
2023-02-14T01:31:51.266Z,30.40
2023-02-14T01:32:51.209Z,32.90
2023-02-14T01:33:51.183Z,32.60
2023-02-14T01:34:51.210Z,35.60
2023-02-14T01:35:51.157Z,34.40
2023-02-14T01:36:51.145Z,34.50
2023-02-14T01:37:51.134Z,32.20
2023-02-14T01:38:51.148Z,34.50
2023-02-14T01:39:51.126Z,34.50
2023-02-14T01:40:51.104Z,34.10
2023-02-14T01:41:51.099Z,34.30
2023-02-14T01:42:51.069Z,33.90
2023-02-14T01:43:51.062Z,35.20
2023-02-14T01:44:51.078Z,35.80
2023-02-14T01:45:51.070Z,34.90
2023-02-14T01:46:51.019Z,32.60
2023-02-14T01:47:50.999Z,32.40
2023-02-14T01:48:51.027Z,33.40
2023-02-14T01:49:51.013Z,31.60
2023-02-14T01:50:50.980Z,31.80
2023-02-14T01:51:50.985Z,32.60
2023-02-14T01:52:50.968Z,32.80
2023-02-14T01:53:50.930Z,32.60
2023-02-14T01:54:50.929Z,32.60
2023-02-14T01:55:50.903Z,30.30
2023-02-14T01:56:50.934Z,32.10
2023-02-14T01:57:50.885Z,31.50
2023-02-14T01:58:50.893Z,31.40
2023-02-14T01:59:50.860Z,32.20
2023-02-14T02:00:50.873Z,31.30
2023-02-14T02:01:50.845Z,32.40
2023-02-14T02:02:50.821Z,33.10
2023-02-14T02:03:50.830Z,32.60
2023-02-14T02:04:50.811Z,33.40
2023-02-14T02:05:50.794Z,33.20
2023-02-14T02:06:50.772Z,34.70
2023-02-14T02:07:50.856Z,32.80
2023-02-14T02:08:50.735Z,32.20
2023-02-14T02:09:50.741Z,32.70
2023-02-14T02:10:50.753Z,32.80
2023-02-14T02:11:50.703Z,33.80
2023-02-14T02:12:50.703Z,32.30
2023-02-14T02:13:50.673Z,34.50
2023-02-14T02:14:50.668Z,33.50
2023-02-14T02:15:50.710Z,33.40
2023-02-14T02:16:50.723Z,37.10
2023-02-14T02:17:50.643Z,34.20
2023-02-14T02:18:50.639Z,34.40
2023-02-14T02:19:50.614Z,37.40
2023-02-14T02:20:50.601Z,37.90
2023-02-14T02:21:50.573Z,38.20
2023-02-14T02:22:50.563Z,36.10
2023-02-14T02:23:50.574Z,37.00
2023-02-14T02:24:50.552Z,37.20
2023-02-14T02:25:50.552Z,36.10
2023-02-14T02:26:50.518Z,34.90
2023-02-14T02:27:50.522Z,36.20
2023-02-14T02:28:50.494Z,38.00
2023-02-14T02:29:50.484Z,38.80
2023-02-14T02:30:50.624Z,40.10
2023-02-14T02:31:50.588Z,36.10
2023-02-14T02:32:50.433Z,40.40
2023-02-14T02:33:50.434Z,40.80
2023-02-14T02:34:50.428Z,38.50
2023-02-14T02:35:50.411Z,38.10
2023-02-14T02:36:50.390Z,38.20
2023-02-14T02:37:50.384Z,39.80
2023-02-14T02:38:50.374Z,38.80
2023-02-14T02:39:50.374Z,38.00
2023-02-14T02:40:50.363Z,40.70
2023-02-14T02:41:50.317Z,41.50
2023-02-14T02:42:50.332Z,40.80
2023-02-14T02:43:50.292Z,40.30
2023-02-14T02:44:50.306Z,41.10
2023-02-14T02:45:50.361Z,39.70
2023-02-14T02:46:50.281Z,42.60
2023-02-14T02:47:50.250Z,40.40
2023-02-14T02:48:50.237Z,38.80
2023-02-14T02:49:50.230Z,37.60
2023-02-14T02:50:50.252Z,39.70
2023-02-14T02:51:50.204Z,39.10
2023-02-14T02:52:50.184Z,40.20
2023-02-14T02:53:50.190Z,39.20
2023-02-14T02:54:50.172Z,38.20
2023-02-14T02:55:50.152Z,37.70
2023-02-14T02:56:50.132Z,38.70
2023-02-14T02:57:50.127Z,40.50
2023-02-14T02:58:50.123Z,40.40
2023-02-14T02:59:50.119Z,40.70
2023-02-14T03:00:50.093Z,41.30
2023-02-14T03:01:50.089Z,57.00
2023-02-14T03:02:50.073Z,53.40
2023-02-14T03:03:50.070Z,47.70
2023-02-14T03:04:50.100Z,46.20
2023-02-14T03:05:50.049Z,42.80
2023-02-14T03:06:50.015Z,45.40
2023-02-14T03:07:50.004Z,43.70
2023-02-14T03:08:50.031Z,46.80
2023-02-14T03:09:49.972Z,47.30
2023-02-14T03:10:49.973Z,49.30
2023-02-14T03:11:49.953Z,44.30
2023-02-14T03:12:49.962Z,43.40
2023-02-14T03:13:49.943Z,43.20
2023-02-14T03:14:49.920Z,45.50
2023-02-14T03:15:49.988Z,49.50
2023-02-14T03:16:49.897Z,47.70
2023-02-14T03:17:49.872Z,46.30
2023-02-14T03:18:49.855Z,45.90
2023-02-14T03:19:49.842Z,47.60
2023-02-14T03:20:49.863Z,47.50
2023-02-14T03:21:49.823Z,49.60
2023-02-14T03:22:49.850Z,45.50
2023-02-14T03:23:49.821Z,47.70
2023-02-14T03:24:49.782Z,47.30
2023-02-14T03:25:49.786Z,46.90
2023-02-14T03:26:49.778Z,50.40
2023-02-14T03:27:49.748Z,46.70
2023-02-14T03:28:49.769Z,46.90
2023-02-14T03:29:49.742Z,48.80
2023-02-14T03:30:49.811Z,47.10
2023-02-14T03:31:49.892Z,46.70
2023-02-14T03:32:49.683Z,47.60
2023-02-14T03:33:49.656Z,47.10
2023-02-14T03:34:49.655Z,47.10
2023-02-14T03:35:49.648Z,47.40
2023-02-14T03:36:49.641Z,48.80
2023-02-14T03:37:49.614Z,48.50
2023-02-14T03:38:49.628Z,47.70
2023-02-14T03:39:49.588Z,46.00
2023-02-14T03:40:49.626Z,49.10
2023-02-14T03:41:49.596Z,48.40
2023-02-14T03:42:49.556Z,48.20
2023-02-14T03:43:49.578Z,46.10
2023-02-14T03:44:49.572Z,49.80
2023-02-14T03:45:49.527Z,51.00
2023-02-14T03:46:49.517Z,53.90
2023-02-14T03:47:49.487Z,52.30
2023-02-14T03:48:49.479Z,51.80
2023-02-14T03:49:49.473Z,50.40
2023-02-14T04:03:17.171Z,39.20
2023-02-14T04:04:17.092Z,35.60
2023-02-14T04:05:17.086Z,40.10
2023-02-14T04:06:17.086Z,39.90
2023-02-14T04:07:17.072Z,39.90
2023-02-14T04:08:17.063Z,39.10
2023-02-14T04:09:17.030Z,38.50
2023-02-14T04:10:17.063Z,42.00
2023-02-14T04:11:17.033Z,41.50
2023-02-14T04:12:19.853Z,40.40
2023-02-14T04:13:17.990Z,40.90
2023-02-14T04:14:17.005Z,39.50
2023-02-14T04:15:16.954Z,39.80
2023-02-14T04:16:17.060Z,39.00
2023-02-14T04:17:16.954Z,39.60
2023-02-14T04:18:16.932Z,40.60
2023-02-14T04:19:24.490Z,39.10
2023-02-14T04:20:16.888Z,39.10
2023-02-14T04:21:16.895Z,42.90
2023-02-14T04:22:16.861Z,43.80
2023-02-14T04:23:16.855Z,45.60
2023-02-14T04:24:16.836Z,42.70
2023-02-14T04:25:16.832Z,42.10
2023-02-14T04:26:16.833Z,44.60
2023-02-14T04:27:16.805Z,41.30
2023-02-14T04:28:16.789Z,41.30
2023-02-14T04:29:16.786Z,38.60
2023-02-14T04:30:16.812Z,43.60
2023-02-14T04:31:16.842Z,43.70
2023-02-14T04:32:16.795Z,41.50
2023-02-14T04:33:16.726Z,43.30
2023-02-14T04:34:16.730Z,41.30
2023-02-14T04:35:16.724Z,41.90
2023-02-14T04:36:16.688Z,39.20
2023-02-14T04:37:16.731Z,42.50
2023-02-14T04:38:16.689Z,41.60
2023-02-14T04:39:16.659Z,43.30
2023-02-14T04:40:16.680Z,41.90
2023-02-14T04:41:16.663Z,43.90
2023-02-14T04:42:16.681Z,43.80
2023-02-14T04:43:16.600Z,39.90
2023-02-14T04:44:16.595Z,44.50
2023-02-14T04:45:16.583Z,44.50
2023-02-14T04:46:16.617Z,41.90
2023-02-14T04:47:16.573Z,45.60
2023-02-14T04:48:16.535Z,46.50
2023-02-14T04:49:16.526Z,41.90
2023-02-14T04:50:16.537Z,43.50
2023-02-14T04:51:16.534Z,42.00
2023-02-14T04:52:16.495Z,42.60
2023-02-14T04:53:16.476Z,45.10
2023-02-14T04:54:16.456Z,41.10
2023-02-14T04:55:16.459Z,45.90
2023-02-14T04:56:16.471Z,44.00
2023-02-14T04:57:16.434Z,41.10
2023-02-14T04:58:16.417Z,41.70
2023-02-14T04:59:16.408Z,41.60
2023-02-14T05:00:16.404Z,42.80
2023-02-14T05:01:16.418Z,40.70
2023-02-14T05:02:16.443Z,40.90
2023-02-14T05:03:16.352Z,45.00
2023-02-14T05:04:16.328Z,43.40
2023-02-14T05:05:16.326Z,40.90
2023-02-14T05:06:16.338Z,41.20
2023-02-14T05:07:16.318Z,41.40
2023-02-14T05:08:16.298Z,40.70
2023-02-14T05:09:16.283Z,42.30
2023-02-14T05:10:16.267Z,42.30
2023-02-14T05:11:16.264Z,42.20
2023-02-14T05:12:16.245Z,44.40
2023-02-14T05:13:16.254Z,46.20
2023-02-14T05:14:16.213Z,45.30
2023-02-14T05:15:16.210Z,43.90
2023-02-14T05:16:16.216Z,45.20
2023-02-14T05:17:16.188Z,42.80
2023-02-14T05:18:16.196Z,39.90
2023-02-14T05:19:16.147Z,45.00
2023-02-14T05:20:16.123Z,40.60
2023-02-14T05:21:16.147Z,38.40
2023-02-14T05:22:18.409Z,39.80
2023-02-14T05:23:16.121Z,40.00
2023-02-14T05:24:16.070Z,42.80
2023-02-14T05:25:16.067Z,42.50
2023-02-14T05:26:16.071Z,41.10
2023-02-14T05:27:16.082Z,40.90
2023-02-14T05:28:16.034Z,41.50
2023-02-14T05:29:16.064Z,42.60
2023-02-14T05:30:16.056Z,45.90
2023-02-14T05:31:16.128Z,41.60
2023-02-14T05:32:16.006Z,46.50
2023-02-14T05:33:15.972Z,42.30
2023-02-14T05:34:15.951Z,42.50
2023-02-14T05:35:15.961Z,41.00
2023-02-14T05:36:15.947Z,41.70
2023-02-14T05:37:15.922Z,41.10
2023-02-14T05:38:15.904Z,45.10
2023-02-14T05:39:15.912Z,40.90
2023-02-14T05:40:15.891Z,41.20
2023-02-14T05:41:15.881Z,42.70
2023-02-14T05:42:15.846Z,42.30
2023-02-14T05:43:15.842Z,41.70
2023-02-14T05:44:15.856Z,41.80
2023-02-14T05:45:15.811Z,42.00
2023-02-14T05:46:15.899Z,41.80
2023-02-14T05:47:15.794Z,41.80
2023-02-14T05:48:15.780Z,40.90
2023-02-14T05:49:15.794Z,40.30
2023-02-14T05:50:15.752Z,41.80
2023-02-14T05:51:15.769Z,43.50
2023-02-14T05:52:15.715Z,43.90
2023-02-14T05:53:15.755Z,43.80
2023-02-14T05:54:15.732Z,44.30
2023-02-14T05:55:15.686Z,46.10
2023-02-14T05:56:15.697Z,46.70
2023-02-14T05:57:15.680Z,48.70
2023-02-14T05:58:15.678Z,47.10
2023-02-14T05:59:15.666Z,43.40
2023-02-14T06:00:15.641Z,44.50
2023-02-14T06:01:15.628Z,45.10
2023-02-14T06:02:15.636Z,50.30
2023-02-14T06:03:15.608Z,47.00
2023-02-14T06:04:15.623Z,44.40
2023-02-14T06:05:15.590Z,44.20
2023-02-14T06:06:15.558Z,48.80
2023-02-14T06:07:15.540Z,48.00
2023-02-14T06:08:15.551Z,47.60
2023-02-14T06:09:15.535Z,47.10
2023-02-14T06:10:15.531Z,45.50
2023-02-14T06:11:15.521Z,47.50
2023-02-14T06:12:15.485Z,44.60
2023-02-14T06:13:15.479Z,43.00
2023-02-14T06:14:15.463Z,44.90
2023-02-14T06:15:15.541Z,44.20
2023-02-14T06:16:15.496Z,43.70
2023-02-14T06:17:15.434Z,46.00
2023-02-14T06:18:15.401Z,41.50
2023-02-14T06:19:15.461Z,43.20
2023-02-14T06:20:15.382Z,41.40
2023-02-14T06:21:15.402Z,43.80
2023-02-14T06:22:15.353Z,43.10
2023-02-14T06:23:15.342Z,47.90
2023-02-14T06:24:15.331Z,45.50
2023-02-14T06:25:15.328Z,44.40
2023-02-14T06:26:15.324Z,41.40
2023-02-14T06:27:15.304Z,45.80
2023-02-14T06:28:15.290Z,40.30
2023-02-14T06:29:15.290Z,42.40
2023-02-14T06:30:15.301Z,41.90
2023-02-14T06:31:15.360Z,43.60
2023-02-14T06:32:15.357Z,45.80
2023-02-14T06:33:15.222Z,41.30
2023-02-14T06:34:16.217Z,43.60
2023-02-14T06:35:15.231Z,41.50
2023-02-14T06:36:15.198Z,42.90
2023-02-14T06:37:15.170Z,44.60
2023-02-14T06:38:15.165Z,44.80
2023-02-14T06:39:15.140Z,42.70
2023-02-14T06:40:15.155Z,40.20
2023-02-14T06:41:15.131Z,41.10
2023-02-14T06:42:15.111Z,39.50
2023-02-14T06:43:15.090Z,40.90
2023-02-14T06:44:15.089Z,40.80
2023-02-14T06:45:15.075Z,38.80
2023-02-14T06:46:15.094Z,38.30
2023-02-14T06:47:15.040Z,38.50
2023-02-14T06:48:15.031Z,38.20
2023-02-14T06:49:15.021Z,38.10
2023-02-14T06:50:15.005Z,46.80
2023-02-14T06:51:15.004Z,43.20
2023-02-14T06:52:14.993Z,44.20
2023-02-14T06:53:14.962Z,41.90
2023-02-14T06:54:14.951Z,39.90
2023-02-14T06:55:14.941Z,38.70
2023-02-14T06:56:14.956Z,38.20
2023-02-14T06:57:14.937Z,37.80
2023-02-14T06:58:14.892Z,39.60
2023-02-14T06:59:14.900Z,42.20
2023-02-14T07:00:14.964Z,38.40
2023-02-14T07:01:14.866Z,40.80
2023-02-14T07:02:14.904Z,41.80
2023-02-14T07:03:14.833Z,41.70
2023-02-14T07:04:14.828Z,42.90
2023-02-14T07:05:14.828Z,40.60
2023-02-14T07:06:14.832Z,40.50
2023-02-14T07:07:14.802Z,41.00
2023-02-14T07:08:14.766Z,39.60
2023-02-14T07:09:14.761Z,41.50
2023-02-14T07:10:14.757Z,40.60
2023-02-14T07:11:14.731Z,40.60
2023-02-14T07:12:14.744Z,40.80
2023-02-14T07:13:14.701Z,40.30
2023-02-14T07:14:14.715Z,37.30
2023-02-14T07:15:14.689Z,38.90
2023-02-14T07:16:14.743Z,38.70
2023-02-14T07:17:14.675Z,38.90
2023-02-14T07:18:14.651Z,42.30
2023-02-14T07:19:14.644Z,41.20
2023-02-14T07:20:14.631Z,41.70
2023-02-14T07:21:14.601Z,40.50
2023-02-14T07:22:14.627Z,41.40
2023-02-14T07:23:14.599Z,45.90
2023-02-14T07:24:14.582Z,44.00
2023-02-14T07:25:14.573Z,41.20
2023-02-14T07:26:14.543Z,42.60
2023-02-14T07:27:14.550Z,40.20
2023-02-14T07:28:14.533Z,40.40
2023-02-14T07:29:14.551Z,39.20
2023-02-14T07:30:14.519Z,41.30
2023-02-14T07:31:14.592Z,40.50
2023-02-14T07:32:14.563Z,38.50
2023-02-14T07:33:14.461Z,39.50
2023-02-14T07:34:14.485Z,40.60
2023-02-14T07:35:15.315Z,39.30
2023-02-14T07:36:14.417Z,40.70
2023-02-14T07:37:14.414Z,44.30
2023-02-14T07:38:14.383Z,43.60
2023-02-14T07:39:14.416Z,42.00
2023-02-14T07:40:15.428Z,41.00
2023-02-14T07:41:14.362Z,45.40
2023-02-14T07:42:14.356Z,42.00
2023-02-14T07:43:14.347Z,41.40
2023-02-14T07:44:14.321Z,44.00
2023-02-14T07:45:22.385Z,46.30
2023-02-14T07:46:15.329Z,43.80
2023-02-14T07:47:14.280Z,42.40
2023-02-14T07:48:14.287Z,43.20
2023-02-14T07:49:14.258Z,43.80
2023-02-14T07:50:14.240Z,42.20
2023-02-14T07:51:14.213Z,45.10
2023-02-14T07:52:14.234Z,46.80
2023-02-14T07:53:14.207Z,47.30
2023-02-14T07:54:14.192Z,42.90
2023-02-14T07:55:14.178Z,44.00
2023-02-14T07:56:14.173Z,48.90
2023-02-14T07:57:14.141Z,49.30
2023-02-14T07:58:14.155Z,48.10
2023-02-14T07:59:14.217Z,49.10
2023-02-14T08:00:14.105Z,49.80
2023-02-14T08:01:14.111Z,47.20
2023-02-14T08:02:14.089Z,46.90
2023-02-14T08:03:14.112Z,46.80
2023-02-14T08:04:14.106Z,46.60
2023-02-14T08:05:14.086Z,45.60
2023-02-14T08:06:14.030Z,46.50
2023-02-14T08:07:14.018Z,47.20
2023-02-14T08:08:14.033Z,44.70
2023-02-14T08:09:13.991Z,45.30
2023-02-14T08:10:14.008Z,44.70
2023-02-14T08:11:13.960Z,48.30
2023-02-14T08:12:13.963Z,43.50
2023-02-14T08:13:13.952Z,45.60
2023-02-14T08:14:13.946Z,44.10
2023-02-14T08:15:13.928Z,42.30
2023-02-14T08:16:13.978Z,42.60
2023-02-14T08:17:13.929Z,42.30
2023-02-14T08:18:13.900Z,44.10
2023-02-14T08:19:13.872Z,43.10
2023-02-14T08:20:13.859Z,43.70
2023-02-14T08:21:13.850Z,39.80
2023-02-14T08:22:13.843Z,41.40
2023-02-14T08:23:13.830Z,39.00
2023-02-14T08:24:13.809Z,39.60
2023-02-14T08:25:13.796Z,40.30
2023-02-14T08:26:13.777Z,38.50
2023-02-14T08:27:13.783Z,38.30
2023-02-14T08:28:13.814Z,36.80
2023-02-14T08:29:16.017Z,36.50
2023-02-14T08:30:13.772Z,36.40
2023-02-14T08:31:14.841Z,38.30
2023-02-14T08:32:13.763Z,35.80
2023-02-14T08:33:13.696Z,34.20
2023-02-14T08:34:13.676Z,36.30
2023-02-14T08:35:13.666Z,38.40
2023-02-14T08:36:13.666Z,38.50
2023-02-14T08:37:13.643Z,37.00
2023-02-14T08:38:13.634Z,37.30
2023-02-14T08:39:13.615Z,36.40
2023-02-14T08:40:13.606Z,40.80
2023-02-14T08:41:13.586Z,40.20
2023-02-14T08:42:13.621Z,39.50
2023-02-14T08:43:13.564Z,36.00
2023-02-14T08:44:13.568Z,34.70
2023-02-14T08:45:13.551Z,36.30
2023-02-14T08:46:13.588Z,38.30
2023-02-14T08:47:13.538Z,38.50
2023-02-14T08:48:13.514Z,36.60
2023-02-14T08:49:13.500Z,38.00
2023-02-14T08:50:13.485Z,37.80
2023-02-14T08:51:13.488Z,38.10
2023-02-14T08:52:13.473Z,36.60
2023-02-14T08:53:13.449Z,37.40
2023-02-14T08:54:13.440Z,34.70
2023-02-14T08:55:13.416Z,35.70
2023-02-14T08:56:13.449Z,34.60
2023-02-14T08:57:13.430Z,34.10
2023-02-14T08:58:13.376Z,35.60
2023-02-14T08:59:13.442Z,33.00
2023-02-14T09:00:13.350Z,33.40
2023-02-14T09:01:13.413Z,34.90
2023-02-14T09:02:13.354Z,36.10
2023-02-14T09:03:13.306Z,35.30
2023-02-14T09:04:13.459Z,36.60
2023-02-14T09:05:13.302Z,34.00
2023-02-14T09:06:13.266Z,32.90
2023-02-14T09:07:13.275Z,33.10
2023-02-14T09:08:13.246Z,33.50
2023-02-14T09:09:13.249Z,30.90
2023-02-14T09:10:13.285Z,31.80
2023-02-14T09:11:13.198Z,31.20
2023-02-14T09:12:13.217Z,31.70
2023-02-14T09:13:13.177Z,31.70
2023-02-14T09:14:13.178Z,30.70
2023-02-14T09:15:13.159Z,30.30
2023-02-14T09:16:13.223Z,32.40
2023-02-14T09:17:13.148Z,33.60
2023-02-14T09:18:13.132Z,33.40
2023-02-14T09:19:13.121Z,33.80
2023-02-14T09:20:13.113Z,31.20
2023-02-14T09:21:13.076Z,32.20
2023-02-14T09:22:13.106Z,33.30
2023-02-14T09:23:13.048Z,35.00
2023-02-14T09:24:13.058Z,31.80
2023-02-14T09:25:13.026Z,33.10
2023-02-14T09:26:13.018Z,33.90
2023-02-14T09:27:13.026Z,30.90
2023-02-14T09:28:12.990Z,31.00
2023-02-14T09:29:12.990Z,32.80
2023-02-14T09:30:13.062Z,31.00
2023-02-14T09:31:13.095Z,31.60
2023-02-14T09:32:13.069Z,31.30
2023-02-14T09:33:12.956Z,32.70
2023-02-14T09:34:12.919Z,31.50
2023-02-14T09:35:12.912Z,31.30
2023-02-14T09:36:12.906Z,31.90
2023-02-14T09:37:12.889Z,31.60
2023-02-14T09:38:12.889Z,29.20
2023-02-14T09:39:12.854Z,31.20
2023-02-14T09:40:12.851Z,28.60
2023-02-14T09:41:12.831Z,29.00
2023-02-14T09:42:12.832Z,29.70
2023-02-14T09:43:12.818Z,29.70
2023-02-14T09:44:12.777Z,27.50
2023-02-14T09:45:12.799Z,28.20
2023-02-14T09:46:12.799Z,28.20
2023-02-14T09:47:12.752Z,26.80
2023-02-14T10:03:44.852Z,23.70
2023-02-14T10:04:44.825Z,23.40
2023-02-14T10:05:44.785Z,23.30
2023-02-14T10:06:44.786Z,24.80
2023-02-14T10:07:44.768Z,28.10
2023-02-14T10:08:44.759Z,26.00
2023-02-14T10:09:44.751Z,26.40
2023-02-14T10:10:44.755Z,26.80
2023-02-14T10:11:44.715Z,25.90
2023-02-14T10:12:44.713Z,24.40
2023-02-14T10:13:44.691Z,26.10
2023-02-14T10:14:44.702Z,24.20
2023-02-14T10:15:44.687Z,24.70
2023-02-14T10:16:45.445Z,24.70
2023-02-14T10:17:44.664Z,24.10
2023-02-14T10:18:44.634Z,23.60
2023-02-14T10:19:44.635Z,24.40
2023-02-14T10:20:44.635Z,24.30
2023-02-14T10:21:45.988Z,23.60
2023-02-14T10:22:44.589Z,24.50
2023-02-14T10:23:44.567Z,24.20
2023-02-14T10:24:44.590Z,24.10
2023-02-14T10:25:44.543Z,22.70
2023-02-14T10:26:44.529Z,23.70
2023-02-14T10:27:44.571Z,23.20
2023-02-14T10:28:44.513Z,24.00
2023-02-14T10:29:44.496Z,23.00
2023-02-14T10:30:44.541Z,22.00
2023-02-14T10:31:44.586Z,21.30
2023-02-14T10:32:44.448Z,23.70
2023-02-14T10:33:44.433Z,24.50
2023-02-14T10:34:44.413Z,23.20
2023-02-14T10:35:44.428Z,22.80
2023-02-14T10:36:44.406Z,23.50
2023-02-14T10:37:44.394Z,23.80
2023-02-14T10:38:44.365Z,25.80
2023-02-14T10:39:44.357Z,23.90
2023-02-14T10:40:44.400Z,24.40
2023-02-14T10:41:44.326Z,24.00
2023-02-14T10:42:44.319Z,24.50
2023-02-14T10:43:44.305Z,24.60
2023-02-14T10:44:44.287Z,23.90
2023-02-14T10:45:44.292Z,23.40
2023-02-14T10:46:44.296Z,23.00
2023-02-14T10:47:44.246Z,22.00
2023-02-14T10:48:44.245Z,22.00
2023-02-14T10:49:44.244Z,21.80
2023-02-14T10:50:44.233Z,21.40
2023-02-14T10:51:44.188Z,21.20
2023-02-14T10:52:44.188Z,22.70
2023-02-14T10:53:44.195Z,21.20
2023-02-14T10:54:44.180Z,22.00
2023-02-14T10:55:44.158Z,22.90
2023-02-14T10:56:44.139Z,22.20
2023-02-14T10:57:44.119Z,21.00
2023-02-14T10:58:44.102Z,22.90
2023-02-14T10:59:44.097Z,21.80
2023-02-14T11:00:44.095Z,23.20
2023-02-14T11:01:44.109Z,22.20
2023-02-14T11:02:44.048Z,22.80
2023-02-14T11:03:44.349Z,21.70
2023-02-14T11:04:44.037Z,22.60
2023-02-14T11:05:46.575Z,23.50
2023-02-14T11:06:44.008Z,22.50
2023-02-14T11:07:43.986Z,21.30
2023-02-14T11:08:44.013Z,21.30
2023-02-14T11:09:43.948Z,23.50
2023-02-14T11:10:43.968Z,23.10
2023-02-14T11:11:43.970Z,22.30
2023-02-14T11:12:43.922Z,22.80
2023-02-14T11:13:43.930Z,23.00
2023-02-14T11:14:43.910Z,22.60
2023-02-14T11:15:43.889Z,23.70
2023-02-14T11:16:43.929Z,24.20
2023-02-14T11:17:43.874Z,22.20
2023-02-14T11:18:43.854Z,21.50
2023-02-14T11:19:43.842Z,21.40
2023-02-14T11:20:43.830Z,21.70
2023-02-14T11:21:43.829Z,20.70
2023-02-14T11:22:43.803Z,22.10
2023-02-14T11:23:43.775Z,22.90
2023-02-14T11:24:43.792Z,22.10
2023-02-14T11:25:43.762Z,21.40
2023-02-14T11:26:43.759Z,21.70
2023-02-14T11:27:43.719Z,21.20
2023-02-14T11:28:43.722Z,20.80
2023-02-14T11:29:43.747Z,21.50
2023-02-14T11:30:43.740Z,22.70
2023-02-14T11:31:43.811Z,22.00
2023-02-14T11:32:43.669Z,21.40
2023-02-14T11:33:43.653Z,22.10
2023-02-14T11:34:43.646Z,20.60
2023-02-14T11:35:43.620Z,21.10
2023-02-14T11:36:43.627Z,21.30
2023-02-14T11:37:43.606Z,22.60
2023-02-14T11:38:43.591Z,20.90
2023-02-14T11:39:43.579Z,21.70
2023-02-14T11:40:43.554Z,20.90
2023-02-14T11:41:43.567Z,21.00
2023-02-14T11:42:43.547Z,21.20
2023-02-14T11:43:43.519Z,21.10
2023-02-14T11:44:43.509Z,21.70
2023-02-14T11:45:43.521Z,22.00
2023-02-14T11:46:52.724Z,21.20
2023-02-14T11:47:44.481Z,22.50
2023-02-14T11:48:43.461Z,21.20
2023-02-14T11:49:43.446Z,20.20
2023-02-14T11:50:43.461Z,20.80
2023-02-14T11:51:43.435Z,21.50
2023-02-14T11:52:43.413Z,20.90
2023-02-14T11:53:43.393Z,21.30
2023-02-14T11:54:43.405Z,19.40
2023-02-14T11:55:43.370Z,22.20
2023-02-14T11:56:43.363Z,21.30
2023-02-14T11:57:43.362Z,21.10
2023-02-14T11:58:43.340Z,21.20
2023-02-14T11:59:43.323Z,20.90
2023-02-14T12:00:43.314Z,21.80
2023-02-14T12:01:43.314Z,21.60
2023-02-14T12:02:43.372Z,20.00
2023-02-14T12:03:43.328Z,19.80
2023-02-14T12:04:46.562Z,20.00
2023-02-14T12:05:43.257Z,20.60
2023-02-14T12:06:43.262Z,20.00
2023-02-14T12:07:43.234Z,19.60
2023-02-14T12:08:43.230Z,20.50
2023-02-14T12:09:43.228Z,20.40
2023-02-14T12:10:43.190Z,19.50
2023-02-14T12:11:43.178Z,19.50
2023-02-14T12:12:43.174Z,19.10
2023-02-14T12:13:43.154Z,18.70
2023-02-14T12:14:43.136Z,18.80
2023-02-14T12:15:43.160Z,20.70
2023-02-14T12:16:43.124Z,20.60
2023-02-14T12:17:43.107Z,20.30
2023-02-14T12:18:43.094Z,20.30
2023-02-14T12:19:43.066Z,20.10
2023-02-14T12:20:43.063Z,20.10
2023-02-14T12:21:43.063Z,19.90
2023-02-14T12:22:43.064Z,20.20
2023-02-14T12:23:43.025Z,19.20
2023-02-14T12:24:43.010Z,19.70
2023-02-14T12:25:42.996Z,19.60
2023-02-14T12:26:42.986Z,19.20
2023-02-14T12:27:42.976Z,19.30
2023-02-14T12:28:42.961Z,19.20
2023-02-14T12:29:42.924Z,19.40
2023-02-14T12:30:42.937Z,19.70
2023-02-14T12:31:43.090Z,19.30
2023-02-14T12:32:42.905Z,20.30
2023-02-14T12:33:42.893Z,19.80
2023-02-14T12:34:42.874Z,18.00
2023-02-14T12:35:42.890Z,17.80
2023-02-14T12:36:42.854Z,18.80
2023-02-14T12:37:43.554Z,18.60
2023-02-14T12:38:42.845Z,18.90
2023-02-14T12:39:42.792Z,18.80
2023-02-14T12:40:42.791Z,18.30
2023-02-14T12:41:42.776Z,17.90
2023-02-14T12:42:42.795Z,18.70
2023-02-14T12:43:42.742Z,17.70
2023-02-14T12:44:42.732Z,19.40
2023-02-14T12:45:42.732Z,19.10
2023-02-14T12:46:42.734Z,19.90
2023-02-14T12:47:42.701Z,19.10
2023-02-14T12:48:42.684Z,18.90
2023-02-14T12:49:42.665Z,20.40
2023-02-14T12:50:42.673Z,18.10
2023-02-14T12:51:42.652Z,18.40
2023-02-14T12:52:42.672Z,19.00
2023-02-14T12:53:42.629Z,19.90
2023-02-14T12:54:42.606Z,19.50
2023-02-14T12:55:42.585Z,18.40
2023-02-14T12:56:42.585Z,18.00
2023-02-14T12:57:42.585Z,19.70
2023-02-14T12:58:42.566Z,18.80
2023-02-14T12:59:42.555Z,18.30
2023-02-14T13:00:42.529Z,18.00
2023-02-14T13:01:42.559Z,17.60
2023-02-14T13:02:42.675Z,18.50
2023-02-14T13:03:42.498Z,19.10
2023-02-14T13:04:42.487Z,18.10
2023-02-14T13:05:42.457Z,19.10
2023-02-14T13:06:42.458Z,18.30
2023-02-14T13:07:42.462Z,19.10
2023-02-14T13:08:42.458Z,19.20
2023-02-14T13:09:42.417Z,18.80
2023-02-14T13:10:42.410Z,18.70
2023-02-14T13:11:42.399Z,19.50
2023-02-14T13:12:42.399Z,19.70
2023-02-14T13:13:42.366Z,19.60
2023-02-14T13:14:42.355Z,19.40
2023-02-14T13:15:42.337Z,18.70
2023-02-14T13:16:42.338Z,20.30
2023-02-14T13:17:42.332Z,18.50
2023-02-14T13:18:42.332Z,20.20
2023-02-14T13:19:42.294Z,19.70
2023-02-14T13:20:42.278Z,20.50